sensor_id;sensor_type;location;lat;lon;timestamp;temperature;humidity
758;DHT22;363;48.764;9.172;2023-07-31T00:02:23;16.80;99.90
758;DHT22;363;48.764;9.172;2023-07-31T00:04:49;16.90;99.90
758;DHT22;363;48.764;9.172;2023-07-31T00:07:14;16.90;99.90
758;DHT22;363;48.764;9.172;2023-07-31T00:09:40;16.50;99.90
758;DHT22;363;48.764;9.172;2023-07-31T00:12:06;16.70;99.90
758;DHT22;363;48.764;9.172;2023-07-31T00:14:31;16.50;99.90
758;DHT22;363;48.764;9.172;2023-07-31T00:16:57;16.30;99.90
758;DHT22;363;48.764;9.172;2023-07-31T00:19:23;16.70;99.90
758;DHT22;363;48.764;9.172;2023-07-31T00:21:48;16.50;99.90
758;DHT22;363;48.764;9.172;2023-07-31T00:24:14;16.50;99.90
758;DHT22;363;48.764;9.172;2023-07-31T00:26:39;16.80;99.90
758;DHT22;363;48.764;9.172;2023-07-31T00:29:05;16.40;99.90
758;DHT22;363;48.764;9.172;2023-07-31T00:31:31;16.30;99.90
758;DHT22;363;48.764;9.172;2023-07-31T00:33:56;16.30;99.90
758;DHT22;363;48.764;9.172;2023-07-31T00:36:22;16.50;99.90
758;DHT22;363;48.764;9.172;2023-07-31T00:38:47;16.20;99.90
758;DHT22;363;48.764;9.172;2023-07-31T00:41:13;16.60;99.90
758;DHT22;363;48.764;9.172;2023-07-31T00:43:38;16.50;99.90
758;DHT22;363;48.764;9.172;2023-07-31T00:46:04;16.40;99.90
758;DHT22;363;48.764;9.172;2023-07-31T00:48:30;16.40;99.90
758;DHT22;363;48.764;9.172;2023-07-31T00:50:56;16.10;99.90
758;DHT22;363;48.764;9.172;2023-07-31T00:53:22;16.10;99.90
758;DHT22;363;48.764;9.172;2023-07-31T00:55:50;16.50;99.90
758;DHT22;363;48.764;9.172;2023-07-31T00:58:15;16.10;99.90
758;DHT22;363;48.764;9.172;2023-07-31T01:00:41;16.30;99.90
758;DHT22;363;48.764;9.172;2023-07-31T01:03:07;16.50;99.90
758;DHT22;363;48.764;9.172;2023-07-31T01:05:44;16.40;99.90
758;DHT22;363;48.764;9.172;2023-07-31T01:11:06;16.40;99.90
758;DHT22;363;48.764;9.172;2023-07-31T01:13:32;16.50;99.90
758;DHT22;363;48.764;9.172;2023-07-31T01:15:58;16.20;99.90
758;DHT22;363;48.764;9.172;2023-07-31T01:18:24;16.20;99.90
758;DHT22;363;48.764;9.172;2023-07-31T01:20:54;16.30;99.90
758;DHT22;363;48.764;9.172;2023-07-31T01:26:12;16.20;99.90
758;DHT22;363;48.764;9.172;2023-07-31T01:29:00;16.30;99.90
758;DHT22;363;48.764;9.172;2023-07-31T01:31:29;16.10;99.90
758;DHT22;363;48.764;9.172;2023-07-31T01:33:58;16.10;99.90
758;DHT22;363;48.764;9.172;2023-07-31T01:36:25;15.90;99.90
758;DHT22;363;48.764;9.172;2023-07-31T01:38:51;15.80;99.90
758;DHT22;363;48.764;9.172;2023-07-31T01:41:17;16.10;99.90
758;DHT22;363;48.764;9.172;2023-07-31T01:43:44;15.90;99.90
758;DHT22;363;48.764;9.172;2023-07-31T01:46:09;15.90;99.90
758;DHT22;363;48.764;9.172;2023-07-31T01:48:35;15.80;99.90
758;DHT22;363;48.764;9.172;2023-07-31T01:51:02;15.80;99.90
758;DHT22;363;48.764;9.172;2023-07-31T01:53:29;15.90;99.90
758;DHT22;363;48.764;9.172;2023-07-31T01:55:55;15.60;99.90
758;DHT22;363;48.764;9.172;2023-07-31T01:58:20;15.70;99.90
758;DHT22;363;48.764;9.172;2023-07-31T02:00:46;15.60;99.90
758;DHT22;363;48.764;9.172;2023-07-31T02:03:11;15.90;99.90
758;DHT22;363;48.764;9.172;2023-07-31T02:05:44;15.50;99.90
758;DHT22;363;48.764;9.172;2023-07-31T02:08:10;15.70;99.90
758;DHT22;363;48.764;9.172;2023-07-31T02:10:35;15.80;99.90
758;DHT22;363;48.764;9.172;2023-07-31T02:13:01;15.70;99.90
758;DHT22;363;48.764;9.172;2023-07-31T02:15:30;15.50;99.90
758;DHT22;363;48.764;9.172;2023-07-31T02:17:55;15.80;99.90
758;DHT22;363;48.764;9.172;2023-07-31T02:20:21;15.80;99.90
758;DHT22;363;48.764;9.172;2023-07-31T02:22:46;15.50;99.90
758;DHT22;363;48.764;9.172;2023-07-31T02:25:12;15.90;99.90
758;DHT22;363;48.764;9.172;2023-07-31T02:27:37;15.70;99.90
758;DHT22;363;48.764;9.172;2023-07-31T02:30:03;15.80;99.90
758;DHT22;363;48.764;9.172;2023-07-31T02:32:28;15.90;99.90
758;DHT22;363;48.764;9.172;2023-07-31T02:34:54;15.70;99.90
758;DHT22;363;48.764;9.172;2023-07-31T02:37:19;15.60;99.90
758;DHT22;363;48.764;9.172;2023-07-31T02:39:45;15.70;99.90
758;DHT22;363;48.764;9.172;2023-07-31T02:42:10;15.90;99.90
758;DHT22;363;48.764;9.172;2023-07-31T02:44:36;15.80;99.90
758;DHT22;363;48.764;9.172;2023-07-31T02:47:02;15.70;99.90
758;DHT22;363;48.764;9.172;2023-07-31T02:49:28;16.00;99.90
758;DHT22;363;48.764;9.172;2023-07-31T02:51:54;15.80;99.90
758;DHT22;363;48.764;9.172;2023-07-31T02:54:19;15.60;99.90
758;DHT22;363;48.764;9.172;2023-07-31T02:56:47;15.60;99.90
758;DHT22;363;48.764;9.172;2023-07-31T02:59:13;15.90;99.90
758;DHT22;363;48.764;9.172;2023-07-31T03:01:38;15.70;99.90
758;DHT22;363;48.764;9.172;2023-07-31T03:04:04;15.80;99.90
758;DHT22;363;48.764;9.172;2023-07-31T03:06:30;15.90;99.90
758;DHT22;363;48.764;9.172;2023-07-31T03:08:55;16.00;99.90
758;DHT22;363;48.764;9.172;2023-07-31T03:11:21;16.00;99.90
758;DHT22;363;48.764;9.172;2023-07-31T03:13:47;16.10;99.90
758;DHT22;363;48.764;9.172;2023-07-31T03:16:12;16.20;99.90
758;DHT22;363;48.764;9.172;2023-07-31T03:18:38;16.10;99.90
758;DHT22;363;48.764;9.172;2023-07-31T03:21:04;16.00;99.90
758;DHT22;363;48.764;9.172;2023-07-31T03:23:30;16.10;99.90
758;DHT22;363;48.764;9.172;2023-07-31T03:26:05;16.30;99.90
758;DHT22;363;48.764;9.172;2023-07-31T03:28:30;16.10;99.90
758;DHT22;363;48.764;9.172;2023-07-31T03:30:56;16.00;99.90
758;DHT22;363;48.764;9.172;2023-07-31T03:33:22;16.00;99.90
758;DHT22;363;48.764;9.172;2023-07-31T03:35:47;15.90;99.90
758;DHT22;363;48.764;9.172;2023-07-31T03:38:13;15.80;99.90
758;DHT22;363;48.764;9.172;2023-07-31T03:40:39;15.80;99.90
758;DHT22;363;48.764;9.172;2023-07-31T03:43:05;15.80;99.90
758;DHT22;363;48.764;9.172;2023-07-31T03:45:30;15.70;99.90
758;DHT22;363;48.764;9.172;2023-07-31T03:47:56;15.80;99.90
758;DHT22;363;48.764;9.172;2023-07-31T03:50:21;15.60;99.90
758;DHT22;363;48.764;9.172;2023-07-31T03:52:47;15.60;99.90
758;DHT22;363;48.764;9.172;2023-07-31T03:55:13;15.60;99.90
758;DHT22;363;48.764;9.172;2023-07-31T03:57:38;15.80;99.90
758;DHT22;363;48.764;9.172;2023-07-31T04:00:04;15.70;99.90
758;DHT22;363;48.764;9.172;2023-07-31T04:02:30;15.70;99.90
758;DHT22;363;48.764;9.172;2023-07-31T04:04:55;15.80;99.90
758;DHT22;363;48.764;9.172;2023-07-31T04:07:21;15.80;99.90
758;DHT22;363;48.764;9.172;2023-07-31T04:09:46;15.70;99.90
758;DHT22;363;48.764;9.172;2023-07-31T04:12:12;15.70;99.90
758;DHT22;363;48.764;9.172;2023-07-31T04:14:37;15.60;99.90
758;DHT22;363;48.764;9.172;2023-07-31T04:17:03;15.80;99.90
758;DHT22;363;48.764;9.172;2023-07-31T04:19:29;15.90;99.90
758;DHT22;363;48.764;9.172;2023-07-31T04:21:54;15.80;99.90
758;DHT22;363;48.764;9.172;2023-07-31T04:24:20;16.20;99.90
758;DHT22;363;48.764;9.172;2023-07-31T04:26:50;15.80;99.90
758;DHT22;363;48.764;9.172;2023-07-31T04:29:16;15.80;99.90
758;DHT22;363;48.764;9.172;2023-07-31T04:31:42;16.00;99.90
758;DHT22;363;48.764;9.172;2023-07-31T04:34:07;17.40;99.90
758;DHT22;363;48.764;9.172;2023-07-31T04:36:33;16.10;99.90
758;DHT22;363;48.764;9.172;2023-07-31T04:38:59;15.90;99.90
758;DHT22;363;48.764;9.172;2023-07-31T04:41:25;16.30;99.90
758;DHT22;363;48.764;9.172;2023-07-31T04:43:50;16.20;99.90
758;DHT22;363;48.764;9.172;2023-07-31T04:46:16;16.20;99.90
758;DHT22;363;48.764;9.172;2023-07-31T04:48:42;16.20;99.90
758;DHT22;363;48.764;9.172;2023-07-31T04:51:08;16.30;99.90
758;DHT22;363;48.764;9.172;2023-07-31T04:53:35;16.60;99.90
758;DHT22;363;48.764;9.172;2023-07-31T04:56:00;16.80;99.90
758;DHT22;363;48.764;9.172;2023-07-31T04:58:26;16.70;99.90
758;DHT22;363;48.764;9.172;2023-07-31T05:00:51;17.10;99.90
758;DHT22;363;48.764;9.172;2023-07-31T05:03:17;17.10;99.90
758;DHT22;363;48.764;9.172;2023-07-31T05:05:43;17.30;99.90
758;DHT22;363;48.764;9.172;2023-07-31T05:08:08;17.30;99.90
758;DHT22;363;48.764;9.172;2023-07-31T05:10:34;17.40;99.90
758;DHT22;363;48.764;9.172;2023-07-31T05:12:59;17.20;99.90
758;DHT22;363;48.764;9.172;2023-07-31T05:15:25;17.50;99.90
758;DHT22;363;48.764;9.172;2023-07-31T05:17:50;17.40;99.90
758;DHT22;363;48.764;9.172;2023-07-31T05:20:16;17.50;99.90
758;DHT22;363;48.764;9.172;2023-07-31T05:22:42;17.60;99.90
758;DHT22;363;48.764;9.172;2023-07-31T05:25:07;18.00;99.90
758;DHT22;363;48.764;9.172;2023-07-31T05:27:33;17.70;99.90
758;DHT22;363;48.764;9.172;2023-07-31T05:29:59;17.80;99.90
758;DHT22;363;48.764;9.172;2023-07-31T05:32:24;18.00;99.90
758;DHT22;363;48.764;9.172;2023-07-31T05:34:53;18.00;99.90
758;DHT22;363;48.764;9.172;2023-07-31T05:37:19;18.00;99.90
758;DHT22;363;48.764;9.172;2023-07-31T05:39:45;18.10;99.90
758;DHT22;363;48.764;9.172;2023-07-31T05:42:11;18.20;99.90
758;DHT22;363;48.764;9.172;2023-07-31T05:44:36;18.30;99.90
758;DHT22;363;48.764;9.172;2023-07-31T05:47:02;18.40;99.90
758;DHT22;363;48.764;9.172;2023-07-31T05:49:28;18.50;99.90
758;DHT22;363;48.764;9.172;2023-07-31T05:51:53;18.70;99.90
758;DHT22;363;48.764;9.172;2023-07-31T05:54:19;18.90;99.90
758;DHT22;363;48.764;9.172;2023-07-31T05:56:45;18.70;99.80
758;DHT22;363;48.764;9.172;2023-07-31T05:59:12;18.80;99.60
758;DHT22;363;48.764;9.172;2023-07-31T06:01:39;19.50;99.60
758;DHT22;363;48.764;9.172;2023-07-31T06:04:04;19.50;99.10
758;DHT22;363;48.764;9.172;2023-07-31T06:06:30;19.80;98.60
758;DHT22;363;48.764;9.172;2023-07-31T06:08:55;20.00;98.20
758;DHT22;363;48.764;9.172;2023-07-31T06:11:21;20.20;97.80
758;DHT22;363;48.764;9.172;2023-07-31T06:13:47;20.30;97.50
758;DHT22;363;48.764;9.172;2023-07-31T06:16:14;20.50;97.20
758;DHT22;363;48.764;9.172;2023-07-31T06:18:41;20.70;96.70
758;DHT22;363;48.764;9.172;2023-07-31T06:21:06;20.90;96.20
758;DHT22;363;48.764;9.172;2023-07-31T06:23:32;21.00;95.30
758;DHT22;363;48.764;9.172;2023-07-31T06:25:57;21.20;95.00
758;DHT22;363;48.764;9.172;2023-07-31T06:28:30;21.30;94.50
758;DHT22;363;48.764;9.172;2023-07-31T06:30:57;21.30;94.40
758;DHT22;363;48.764;9.172;2023-07-31T06:33:23;21.90;94.30
758;DHT22;363;48.764;9.172;2023-07-31T06:35:48;21.60;93.40
758;DHT22;363;48.764;9.172;2023-07-31T06:38:14;21.80;93.10
758;DHT22;363;48.764;9.172;2023-07-31T06:40:43;21.70;93.10
758;DHT22;363;48.764;9.172;2023-07-31T06:43:17;21.80;93.00
758;DHT22;363;48.764;9.172;2023-07-31T06:45:49;21.80;93.00
758;DHT22;363;48.764;9.172;2023-07-31T06:48:16;21.70;92.90
758;DHT22;363;48.764;9.172;2023-07-31T06:50:42;22.00;92.50
758;DHT22;363;48.764;9.172;2023-07-31T06:53:08;22.00;92.60
758;DHT22;363;48.764;9.172;2023-07-31T06:55:33;21.70;92.70
758;DHT22;363;48.764;9.172;2023-07-31T06:57:59;21.90;92.90
758;DHT22;363;48.764;9.172;2023-07-31T07:00:24;22.10;92.20
758;DHT22;363;48.764;9.172;2023-07-31T07:02:50;22.30;91.60
758;DHT22;363;48.764;9.172;2023-07-31T07:05:17;22.50;91.50
758;DHT22;363;48.764;9.172;2023-07-31T07:07:43;22.70;91.10
758;DHT22;363;48.764;9.172;2023-07-31T07:10:09;22.80;90.50
758;DHT22;363;48.764;9.172;2023-07-31T07:12:35;23.00;90.10
758;DHT22;363;48.764;9.172;2023-07-31T07:15:01;23.10;90.00
758;DHT22;363;48.764;9.172;2023-07-31T07:17:28;23.50;90.00
758;DHT22;363;48.764;9.172;2023-07-31T07:19:53;24.30;88.20
758;DHT22;363;48.764;9.172;2023-07-31T07:22:20;24.90;85.40
758;DHT22;363;48.764;9.172;2023-07-31T07:24:46;26.00;81.10
758;DHT22;363;48.764;9.172;2023-07-31T07:27:11;27.00;77.60
758;DHT22;363;48.764;9.172;2023-07-31T07:29:38;28.00;72.90
758;DHT22;363;48.764;9.172;2023-07-31T07:32:03;28.40;69.60
758;DHT22;363;48.764;9.172;2023-07-31T07:34:29;28.90;67.80
758;DHT22;363;48.764;9.172;2023-07-31T07:36:55;28.30;65.90
758;DHT22;363;48.764;9.172;2023-07-31T07:39:20;28.00;67.80
758;DHT22;363;48.764;9.172;2023-07-31T07:41:46;26.70;71.10
758;DHT22;363;48.764;9.172;2023-07-31T07:44:12;25.80;72.80
758;DHT22;363;48.764;9.172;2023-07-31T07:46:38;25.70;75.60
758;DHT22;363;48.764;9.172;2023-07-31T07:49:04;26.40;74.20
758;DHT22;363;48.764;9.172;2023-07-31T07:51:30;26.70;72.00
758;DHT22;363;48.764;9.172;2023-07-31T07:53:59;26.50;71.80
758;DHT22;363;48.764;9.172;2023-07-31T07:56:26;26.10;72.90
758;DHT22;363;48.764;9.172;2023-07-31T07:58:52;26.90;72.10
758;DHT22;363;48.764;9.172;2023-07-31T08:01:18;27.40;69.60
758;DHT22;363;48.764;9.172;2023-07-31T08:03:44;28.20;66.30
758;DHT22;363;48.764;9.172;2023-07-31T08:06:10;29.40;63.80
758;DHT22;363;48.764;9.172;2023-07-31T08:08:36;30.20;60.50
758;DHT22;363;48.764;9.172;2023-07-31T08:11:02;30.40;59.20
758;DHT22;363;48.764;9.172;2023-07-31T08:13:27;31.10;57.90
758;DHT22;363;48.764;9.172;2023-07-31T08:15:53;31.90;56.10
758;DHT22;363;48.764;9.172;2023-07-31T08:18:19;33.00;54.50
758;DHT22;363;48.764;9.172;2023-07-31T08:20:44;33.50;52.10
758;DHT22;363;48.764;9.172;2023-07-31T08:23:10;33.20;50.80
758;DHT22;363;48.764;9.172;2023-07-31T08:25:36;32.90;50.70
758;DHT22;363;48.764;9.172;2023-07-31T08:28:03;33.30;51.30
758;DHT22;363;48.764;9.172;2023-07-31T08:30:29;33.10;50.70
758;DHT22;363;48.764;9.172;2023-07-31T08:32:55;32.60;50.60
758;DHT22;363;48.764;9.172;2023-07-31T08:35:21;32.90;49.80
758;DHT22;363;48.764;9.172;2023-07-31T08:37:46;33.00;49.80
758;DHT22;363;48.764;9.172;2023-07-31T08:40:12;33.20;49.10
758;DHT22;363;48.764;9.172;2023-07-31T08:42:49;33.20;49.00
758;DHT22;363;48.764;9.172;2023-07-31T08:45:16;32.10;49.10
758;DHT22;363;48.764;9.172;2023-07-31T08:47:45;31.60;50.70
758;DHT22;363;48.764;9.172;2023-07-31T08:50:13;32.40;50.50
758;DHT22;363;48.764;9.172;2023-07-31T08:52:38;31.80;50.40
758;DHT22;363;48.764;9.172;2023-07-31T08:55:05;31.00;52.10
758;DHT22;363;48.764;9.172;2023-07-31T08:57:32;30.40;52.80
758;DHT22;363;48.764;9.172;2023-07-31T08:59:59;30.00;53.70
758;DHT22;363;48.764;9.172;2023-07-31T09:02:29;30.40;53.50
758;DHT22;363;48.764;9.172;2023-07-31T09:04:57;30.80;52.90
758;DHT22;363;48.764;9.172;2023-07-31T09:07:24;30.20;52.90
758;DHT22;363;48.764;9.172;2023-07-31T09:09:49;30.20;53.50
758;DHT22;363;48.764;9.172;2023-07-31T09:12:15;30.30;53.40
758;DHT22;363;48.764;9.172;2023-07-31T09:14:42;29.80;53.30
758;DHT22;363;48.764;9.172;2023-07-31T09:17:10;29.40;54.50
758;DHT22;363;48.764;9.172;2023-07-31T09:19:36;29.40;55.30
758;DHT22;363;48.764;9.172;2023-07-31T09:22:06;29.60;54.80
758;DHT22;363;48.764;9.172;2023-07-31T09:24:33;29.40;55.60
758;DHT22;363;48.764;9.172;2023-07-31T09:27:00;29.20;55.60
758;DHT22;363;48.764;9.172;2023-07-31T09:29:27;28.60;56.30
758;DHT22;363;48.764;9.172;2023-07-31T09:31:54;27.60;57.60
758;DHT22;363;48.764;9.172;2023-07-31T09:34:20;27.20;59.00
758;DHT22;363;48.764;9.172;2023-07-31T09:36:53;26.90;60.90
758;DHT22;363;48.764;9.172;2023-07-31T09:39:19;26.50;61.40
758;DHT22;363;48.764;9.172;2023-07-31T09:41:53;26.20;63.60
758;DHT22;363;48.764;9.172;2023-07-31T09:44:18;26.00;64.70
758;DHT22;363;48.764;9.172;2023-07-31T09:46:45;25.80;65.40
758;DHT22;363;48.764;9.172;2023-07-31T09:49:12;25.20;67.60
758;DHT22;363;48.764;9.172;2023-07-31T09:51:42;25.20;67.60
758;DHT22;363;48.764;9.172;2023-07-31T09:54:15;25.80;67.00
758;DHT22;363;48.764;9.172;2023-07-31T09:56:48;27.70;62.00
758;DHT22;363;48.764;9.172;2023-07-31T09:59:18;29.10;58.00
758;DHT22;363;48.764;9.172;2023-07-31T10:01:45;29.40;56.80
758;DHT22;363;48.764;9.172;2023-07-31T10:04:12;29.40;56.20
758;DHT22;363;48.764;9.172;2023-07-31T10:06:40;28.90;57.00
758;DHT22;363;48.764;9.172;2023-07-31T10:09:07;28.60;57.70
758;DHT22;363;48.764;9.172;2023-07-31T10:11:47;28.50;57.20
758;DHT22;363;48.764;9.172;2023-07-31T10:14:18;28.40;57.70
758;DHT22;363;48.764;9.172;2023-07-31T10:16:45;27.80;57.40
758;DHT22;363;48.764;9.172;2023-07-31T10:19:10;27.80;58.30
758;DHT22;363;48.764;9.172;2023-07-31T10:21:37;27.30;59.80
758;DHT22;363;48.764;9.172;2023-07-31T10:24:04;26.80;60.80
758;DHT22;363;48.764;9.172;2023-07-31T10:26:31;26.60;61.50
758;DHT22;363;48.764;9.172;2023-07-31T10:28:58;26.20;63.20
758;DHT22;363;48.764;9.172;2023-07-31T10:31:24;25.70;63.50
758;DHT22;363;48.764;9.172;2023-07-31T10:33:51;26.20;64.30
758;DHT22;363;48.764;9.172;2023-07-31T10:36:18;26.30;64.00
758;DHT22;363;48.764;9.172;2023-07-31T10:38:45;25.80;64.40
758;DHT22;363;48.764;9.172;2023-07-31T10:41:10;25.80;65.50
758;DHT22;363;48.764;9.172;2023-07-31T10:43:37;25.80;66.10
758;DHT22;363;48.764;9.172;2023-07-31T10:46:07;25.80;64.90
758;DHT22;363;48.764;9.172;2023-07-31T10:48:34;25.80;64.70
758;DHT22;363;48.764;9.172;2023-07-31T10:51:07;25.70;66.30
758;DHT22;363;48.764;9.172;2023-07-31T10:53:33;25.80;65.00
758;DHT22;363;48.764;9.172;2023-07-31T10:56:00;25.60;64.90
758;DHT22;363;48.764;9.172;2023-07-31T10:58:26;25.60;65.60
758;DHT22;363;48.764;9.172;2023-07-31T11:00:58;25.80;65.00
758;DHT22;363;48.764;9.172;2023-07-31T11:06:06;25.60;65.90
758;DHT22;363;48.764;9.172;2023-07-31T11:08:33;25.30;65.20
758;DHT22;363;48.764;9.172;2023-07-31T11:13:48;25.50;67.00
758;DHT22;363;48.764;9.172;2023-07-31T11:16:15;25.40;66.80
758;DHT22;363;48.764;9.172;2023-07-31T11:18:42;25.30;67.20
758;DHT22;363;48.764;9.172;2023-07-31T11:21:11;25.10;68.60
758;DHT22;363;48.764;9.172;2023-07-31T11:23:37;25.10;67.90
758;DHT22;363;48.764;9.172;2023-07-31T11:26:05;25.00;68.50
758;DHT22;363;48.764;9.172;2023-07-31T11:28:32;24.90;68.50
758;DHT22;363;48.764;9.172;2023-07-31T11:30:59;25.00;68.80
758;DHT22;363;48.764;9.172;2023-07-31T11:33:25;25.20;69.20
758;DHT22;363;48.764;9.172;2023-07-31T11:35:51;24.90;70.10
758;DHT22;363;48.764;9.172;2023-07-31T11:38:30;24.80;70.30
758;DHT22;363;48.764;9.172;2023-07-31T11:40:58;24.60;70.70
758;DHT22;363;48.764;9.172;2023-07-31T11:43:24;24.70;71.00
758;DHT22;363;48.764;9.172;2023-07-31T11:45:55;25.40;69.90
758;DHT22;363;48.764;9.172;2023-07-31T11:48:21;25.80;68.50
758;DHT22;363;48.764;9.172;2023-07-31T11:50:49;26.10;68.40
758;DHT22;363;48.764;9.172;2023-07-31T11:53:16;26.30;66.80
758;DHT22;363;48.764;9.172;2023-07-31T11:55:42;26.40;66.50
758;DHT22;363;48.764;9.172;2023-07-31T11:58:09;26.10;67.20
758;DHT22;363;48.764;9.172;2023-07-31T12:00:35;25.90;67.20
758;DHT22;363;48.764;9.172;2023-07-31T12:03:01;25.90;68.00
758;DHT22;363;48.764;9.172;2023-07-31T12:05:26;25.80;68.50
758;DHT22;363;48.764;9.172;2023-07-31T12:07:54;25.80;68.70
758;DHT22;363;48.764;9.172;2023-07-31T12:10:31;25.90;68.80
758;DHT22;363;48.764;9.172;2023-07-31T12:13:11;25.90;69.00
758;DHT22;363;48.764;9.172;2023-07-31T12:15:43;25.90;69.10
758;DHT22;363;48.764;9.172;2023-07-31T12:20:34;25.90;69.40
758;DHT22;363;48.764;9.172;2023-07-31T12:23:01;25.80;69.50
758;DHT22;363;48.764;9.172;2023-07-31T12:25:31;25.60;69.00
758;DHT22;363;48.764;9.172;2023-07-31T12:27:57;25.60;69.30
758;DHT22;363;48.764;9.172;2023-07-31T12:30:27;25.60;69.80
758;DHT22;363;48.764;9.172;2023-07-31T12:32:53;25.40;69.80
758;DHT22;363;48.764;9.172;2023-07-31T12:35:19;25.40;70.30
758;DHT22;363;48.764;9.172;2023-07-31T12:37:44;25.30;70.40
758;DHT22;363;48.764;9.172;2023-07-31T12:40:10;25.30;72.50
758;DHT22;363;48.764;9.172;2023-07-31T12:42:36;25.00;70.40
758;DHT22;363;48.764;9.172;2023-07-31T12:45:02;24.70;70.70
758;DHT22;363;48.764;9.172;2023-07-31T12:47:27;24.50;70.90
758;DHT22;363;48.764;9.172;2023-07-31T12:49:53;24.50;71.50
758;DHT22;363;48.764;9.172;2023-07-31T12:52:18;24.50;72.20
758;DHT22;363;48.764;9.172;2023-07-31T12:54:44;24.30;72.40
758;DHT22;363;48.764;9.172;2023-07-31T12:57:10;24.30;72.60
758;DHT22;363;48.764;9.172;2023-07-31T12:59:35;24.30;72.60
758;DHT22;363;48.764;9.172;2023-07-31T13:02:01;24.30;72.40
758;DHT22;363;48.764;9.172;2023-07-31T13:04:26;24.30;72.60
758;DHT22;363;48.764;9.172;2023-07-31T13:06:52;24.40;72.70
758;DHT22;363;48.764;9.172;2023-07-31T13:09:17;24.60;73.50
758;DHT22;363;48.764;9.172;2023-07-31T13:11:43;24.70;72.70
758;DHT22;363;48.764;9.172;2023-07-31T13:14:09;24.70;72.90
758;DHT22;363;48.764;9.172;2023-07-31T13:16:34;24.70;73.40
758;DHT22;363;48.764;9.172;2023-07-31T13:19:00;24.70;73.70
758;DHT22;363;48.764;9.172;2023-07-31T13:21:25;24.80;72.60
758;DHT22;363;48.764;9.172;2023-07-31T13:23:51;24.90;71.40
758;DHT22;363;48.764;9.172;2023-07-31T13:26:16;25.00;71.90
758;DHT22;363;48.764;9.172;2023-07-31T13:28:42;25.10;71.40
758;DHT22;363;48.764;9.172;2023-07-31T13:31:07;25.30;72.10
758;DHT22;363;48.764;9.172;2023-07-31T13:33:33;25.40;71.80
758;DHT22;363;48.764;9.172;2023-07-31T13:35:58;25.50;72.20
758;DHT22;363;48.764;9.172;2023-07-31T13:38:24;25.60;72.40
758;DHT22;363;48.764;9.172;2023-07-31T13:40:50;25.60;70.90
758;DHT22;363;48.764;9.172;2023-07-31T13:43:15;25.80;71.70
758;DHT22;363;48.764;9.172;2023-07-31T13:45:41;25.90;70.70
758;DHT22;363;48.764;9.172;2023-07-31T13:48:06;25.90;70.90
758;DHT22;363;48.764;9.172;2023-07-31T13:50:32;25.70;71.60
758;DHT22;363;48.764;9.172;2023-07-31T13:52:57;25.70;70.50
758;DHT22;363;48.764;9.172;2023-07-31T13:55:23;25.80;71.10
758;DHT22;363;48.764;9.172;2023-07-31T13:57:48;25.70;70.70
758;DHT22;363;48.764;9.172;2023-07-31T14:00:14;25.70;71.60
758;DHT22;363;48.764;9.172;2023-07-31T14:02:40;25.80;72.30
758;DHT22;363;48.764;9.172;2023-07-31T14:05:05;25.70;71.10
758;DHT22;363;48.764;9.172;2023-07-31T14:07:32;25.60;71.30
758;DHT22;363;48.764;9.172;2023-07-31T14:09:57;25.70;71.90
758;DHT22;363;48.764;9.172;2023-07-31T14:12:23;25.60;72.00
758;DHT22;363;48.764;9.172;2023-07-31T14:14:48;25.50;72.90
758;DHT22;363;48.764;9.172;2023-07-31T14:17:14;25.50;72.60
758;DHT22;363;48.764;9.172;2023-07-31T14:19:41;25.60;72.50
758;DHT22;363;48.764;9.172;2023-07-31T14:22:07;26.00;73.20
758;DHT22;363;48.764;9.172;2023-07-31T14:24:32;25.80;73.90
758;DHT22;363;48.764;9.172;2023-07-31T14:26:58;25.80;72.50
758;DHT22;363;48.764;9.172;2023-07-31T14:29:23;25.90;72.50
758;DHT22;363;48.764;9.172;2023-07-31T14:31:49;25.80;73.30
758;DHT22;363;48.764;9.172;2023-07-31T14:34:17;25.80;72.80
758;DHT22;363;48.764;9.172;2023-07-31T14:36:43;25.70;73.30
758;DHT22;363;48.764;9.172;2023-07-31T14:39:09;25.70;73.20
758;DHT22;363;48.764;9.172;2023-07-31T14:41:35;25.70;72.80
758;DHT22;363;48.764;9.172;2023-07-31T14:44:00;25.70;73.00
758;DHT22;363;48.764;9.172;2023-07-31T14:46:26;25.60;73.00
758;DHT22;363;48.764;9.172;2023-07-31T14:48:52;25.60;73.80
758;DHT22;363;48.764;9.172;2023-07-31T14:51:17;25.30;73.70
758;DHT22;363;48.764;9.172;2023-07-31T14:53:43;25.70;72.40
758;DHT22;363;48.764;9.172;2023-07-31T14:56:08;25.70;71.90
758;DHT22;363;48.764;9.172;2023-07-31T14:58:34;25.70;71.00
758;DHT22;363;48.764;9.172;2023-07-31T15:01:00;25.50;70.60
758;DHT22;363;48.764;9.172;2023-07-31T15:03:25;25.60;70.80
758;DHT22;363;48.764;9.172;2023-07-31T15:05:51;25.60;71.20
758;DHT22;363;48.764;9.172;2023-07-31T15:08:17;25.60;72.00
758;DHT22;363;48.764;9.172;2023-07-31T15:10:44;25.60;71.80
758;DHT22;363;48.764;9.172;2023-07-31T15:13:10;25.60;70.20
758;DHT22;363;48.764;9.172;2023-07-31T15:15:35;25.70;70.30
758;DHT22;363;48.764;9.172;2023-07-31T15:18:01;25.70;70.60
758;DHT22;363;48.764;9.172;2023-07-31T15:20:26;25.70;70.90
758;DHT22;363;48.764;9.172;2023-07-31T15:22:52;25.60;70.80
758;DHT22;363;48.764;9.172;2023-07-31T15:25:18;25.70;70.70
758;DHT22;363;48.764;9.172;2023-07-31T15:27:43;25.70;70.70
758;DHT22;363;48.764;9.172;2023-07-31T15:30:09;25.70;71.20
758;DHT22;363;48.764;9.172;2023-07-31T15:32:37;25.70;71.90
758;DHT22;363;48.764;9.172;2023-07-31T15:35:03;25.60;71.30
758;DHT22;363;48.764;9.172;2023-07-31T15:37:28;25.60;71.80
758;DHT22;363;48.764;9.172;2023-07-31T15:39:54;25.60;71.50
758;DHT22;363;48.764;9.172;2023-07-31T15:42:19;25.50;71.20
758;DHT22;363;48.764;9.172;2023-07-31T15:44:45;25.40;71.50
758;DHT22;363;48.764;9.172;2023-07-31T15:47:10;25.40;71.70
758;DHT22;363;48.764;9.172;2023-07-31T15:49:36;25.30;72.40
758;DHT22;363;48.764;9.172;2023-07-31T15:52:01;25.10;72.70
758;DHT22;363;48.764;9.172;2023-07-31T15:54:27;25.10;73.90
758;DHT22;363;48.764;9.172;2023-07-31T15:56:53;25.00;73.80
758;DHT22;363;48.764;9.172;2023-07-31T15:59:18;24.90;74.30
758;DHT22;363;48.764;9.172;2023-07-31T16:01:44;25.00;74.80
758;DHT22;363;48.764;9.172;2023-07-31T16:04:09;24.90;74.30
758;DHT22;363;48.764;9.172;2023-07-31T16:06:35;24.90;75.10
758;DHT22;363;48.764;9.172;2023-07-31T16:09:01;24.90;74.60
758;DHT22;363;48.764;9.172;2023-07-31T16:11:27;24.90;74.80
758;DHT22;363;48.764;9.172;2023-07-31T16:13:52;25.00;75.70
758;DHT22;363;48.764;9.172;2023-07-31T16:16:18;24.90;74.80
758;DHT22;363;48.764;9.172;2023-07-31T16:18:45;25.00;74.80
758;DHT22;363;48.764;9.172;2023-07-31T16:21:10;24.90;74.40
758;DHT22;363;48.764;9.172;2023-07-31T16:23:36;24.40;73.60
758;DHT22;363;48.764;9.172;2023-07-31T16:26:01;24.80;74.30
758;DHT22;363;48.764;9.172;2023-07-31T16:28:27;24.90;74.50
758;DHT22;363;48.764;9.172;2023-07-31T16:30:53;24.90;74.90
758;DHT22;363;48.764;9.172;2023-07-31T16:33:18;24.80;74.70
758;DHT22;363;48.764;9.172;2023-07-31T16:35:44;24.80;75.20
758;DHT22;363;48.764;9.172;2023-07-31T16:38:09;24.80;74.90
758;DHT22;363;48.764;9.172;2023-07-31T16:40:35;24.70;74.50
758;DHT22;363;48.764;9.172;2023-07-31T16:43:00;24.70;75.10